Weather at Letung Airport

Public forecast

Using degrees Celsius for public forecast. Weather courtesy of forecast.io.

Closest aviation weather report (METAR) to Letung Airport

Closest report is Mersing Airport, 118.0 nm (218.5 km) WSW.

2024/05/19 07:00 (retrieved 1 hour ago)

WMAU 190700Z 12012KT 050V130 9999 SCT020 34/29 Q1005

Closest aviation forecast (TAF) to Letung Airport

Closest forecast is Tioman Airport, 96.0 nm (177.9 km) W.

2024/05/19 06:00 (retrieved 2 hours ago)

TAF WMBT 190500Z 1906/2006 17005KT 9999 FEW020